createdAt,value
2022-10-05T00:07:52.264Z,10.35
2022-10-05T00:10:29.415Z,10.34
2022-10-05T00:16:24.354Z,10.24
2022-10-05T00:19:11.612Z,10.16
2022-10-05T00:25:24.481Z,10.10
2022-10-05T00:27:56.068Z,10.04
2022-10-05T00:30:25.176Z,10.08
2022-10-05T00:33:20.642Z,10.02
2022-10-05T00:35:49.581Z,10.13
2022-10-05T00:38:22.232Z,10.08
2022-10-05T00:41:28.151Z,9.97
2022-10-05T00:44:13.273Z,10.04
2022-10-05T00:47:16.212Z,9.98
2022-10-05T00:53:26.383Z,9.90
2022-10-05T01:06:23.151Z,9.84
2022-10-05T01:09:43.211Z,9.90
2022-10-05T01:12:18.775Z,9.79
2022-10-05T01:18:51.263Z,9.82
2022-10-05T01:21:37.285Z,9.73
2022-10-05T01:24:32.196Z,9.64
2022-10-05T01:27:15.791Z,9.86
2022-10-05T01:30:21.591Z,9.87
2022-10-05T01:33:19.176Z,9.81
2022-10-05T01:36:16.979Z,9.75
2022-10-05T01:38:50.851Z,9.71
2022-10-05T01:41:49.266Z,9.77
2022-10-05T01:44:20.575Z,9.75
2022-10-05T01:47:03.291Z,9.84
2022-10-05T01:49:33.086Z,9.87
2022-10-05T02:02:58.304Z,9.80
2022-10-05T02:15:22.822Z,9.48
2022-10-05T02:18:08.992Z,9.56
2022-10-05T02:20:54.774Z,9.48
2022-10-05T02:23:25.487Z,9.40
2022-10-05T02:25:56.458Z,9.31
2022-10-05T02:28:54.738Z,9.31
2022-10-05T02:31:45.963Z,9.32
2022-10-05T02:34:37.456Z,9.04
2022-10-05T02:40:31.803Z,9.12
2022-10-05T02:53:19.551Z,9.02
2022-10-05T03:02:48.355Z,9.27
2022-10-05T03:05:23.143Z,9.22
2022-10-05T03:08:27.873Z,9.19
2022-10-05T03:11:17.193Z,9.33
2022-10-05T03:13:46.910Z,9.31
2022-10-05T03:16:40.257Z,9.22
2022-10-05T03:19:31.651Z,9.34
2022-10-05T03:29:02.104Z,9.18
2022-10-05T03:31:50.476Z,9.28
2022-10-05T03:34:18.233Z,9.23
2022-10-05T03:36:49.275Z,9.31
2022-10-05T03:39:53.472Z,9.32
2022-10-05T03:42:57.413Z,9.17
2022-10-05T03:45:36.643Z,9.27
2022-10-05T03:48:28.768Z,9.28
2022-10-05T03:51:15.686Z,9.31
2022-10-05T03:54:07.102Z,9.29
2022-10-05T03:56:55.614Z,9.17
2022-10-05T03:59:41.572Z,9.30
2022-10-05T04:02:15.958Z,9.24
2022-10-05T04:04:47.661Z,9.23
2022-10-05T04:07:34.506Z,9.26
2022-10-05T04:10:25.891Z,9.29
2022-10-05T04:13:03.222Z,9.19
2022-10-05T04:55:28.538Z,9.07
2022-10-05T04:58:15.153Z,9.20
2022-10-05T05:01:25.096Z,9.29
2022-10-05T05:07:56.427Z,10.04
2022-10-05T05:10:49.743Z,10.52
2022-10-05T05:13:42.155Z,10.88
2022-10-05T05:19:50.842Z,11.91
2022-10-05T05:22:42.502Z,12.02
2022-10-05T05:28:42.809Z,12.87
2022-10-05T05:35:00.903Z,13.99
2022-10-05T05:44:28.044Z,15.90
2022-10-05T05:47:10.568Z,16.18
2022-10-05T05:49:40.556Z,16.25
2022-10-05T05:52:20.504Z,16.30
2022-10-05T05:54:54.963Z,17.00
2022-10-05T05:57:42.043Z,17.48
2022-10-05T06:00:08.957Z,17.70
2022-10-05T06:02:48.158Z,17.69
2022-10-05T06:05:24.331Z,17.73
2022-10-05T06:07:53.095Z,18.25
2022-10-05T06:10:22.900Z,17.58
2022-10-05T06:13:01.814Z,17.61
2022-10-05T06:15:32.714Z,17.84
2022-10-05T06:18:03.157Z,17.71
2022-10-05T06:20:39.562Z,17.84
2022-10-05T06:23:12.590Z,17.38
2022-10-05T06:25:52.758Z,16.70
2022-10-05T06:28:19.842Z,16.70
2022-10-05T06:31:01.047Z,17.06
2022-10-05T06:33:39.271Z,17.53
2022-10-05T06:36:09.028Z,17.16
2022-10-05T06:38:39.176Z,17.95
2022-10-05T06:41:13.561Z,17.84
2022-10-05T06:43:46.787Z,17.85
2022-10-05T06:46:18.656Z,17.64
2022-10-05T06:49:11.891Z,17.54
2022-10-05T06:55:18.421Z,17.69
2022-10-05T06:58:11.293Z,17.76
2022-10-05T07:00:46.460Z,17.47
2022-10-05T07:03:22.278Z,17.65
2022-10-05T07:05:59.951Z,18.44
2022-10-05T07:08:26.863Z,17.85
2022-10-05T07:11:03.497Z,18.00
2022-10-05T07:13:33.064Z,18.64
2022-10-05T07:15:59.714Z,19.19
2022-10-05T07:18:44.948Z,19.70
2022-10-05T07:21:14.656Z,20.41
2022-10-05T07:23:53.085Z,20.75
2022-10-05T07:26:29.079Z,21.02
2022-10-05T07:29:08.065Z,20.63
2022-10-05T07:31:58.472Z,20.24
2022-10-05T07:34:39.331Z,20.18
2022-10-05T07:37:30.651Z,20.11
2022-10-05T07:40:18.271Z,20.44
2022-10-05T07:43:04.050Z,19.29
2022-10-05T07:45:36.919Z,20.32
2022-10-05T07:48:12.811Z,20.54
2022-10-05T07:50:46.414Z,20.77
2022-10-05T07:53:21.214Z,20.65
2022-10-05T07:55:51.685Z,20.47
2022-10-05T07:58:31.606Z,20.27
2022-10-05T08:01:11.434Z,19.96
2022-10-05T08:03:43.825Z,20.35
2022-10-05T08:06:18.453Z,20.70
2022-10-05T08:11:15.172Z,21.17
2022-10-05T08:13:51.949Z,21.12
2022-10-05T08:16:19.436Z,20.92
2022-10-05T08:18:59.103Z,21.57
2022-10-05T08:21:39.031Z,21.98
2022-10-05T08:24:26.099Z,22.13
2022-10-05T08:27:02.286Z,22.12
2022-10-05T08:29:37.928Z,22.41
2022-10-05T08:32:06.497Z,22.27
2022-10-05T08:34:45.949Z,22.68
2022-10-05T08:37:24.223Z,22.79
2022-10-05T08:39:56.122Z,22.61
2022-10-05T08:42:42.088Z,22.35
2022-10-05T08:45:25.482Z,22.80
2022-10-05T08:48:18.873Z,22.54
2022-10-05T08:51:04.482Z,22.58
2022-10-05T08:53:43.401Z,23.11
2022-10-05T08:56:29.189Z,22.93
2022-10-05T08:59:10.186Z,22.76
2022-10-05T09:01:55.702Z,22.37
2022-10-05T09:04:33.366Z,22.68
2022-10-05T09:07:08.894Z,23.01
2022-10-05T09:09:56.258Z,23.17
2022-10-05T09:12:46.504Z,23.12
2022-10-05T09:15:32.008Z,23.55
2022-10-05T09:18:17.638Z,23.29
2022-10-05T09:20:47.287Z,23.61
2022-10-05T09:23:34.406Z,23.20
2022-10-05T09:26:07.575Z,23.06
2022-10-05T09:28:42.500Z,23.35
2022-10-05T09:31:15.457Z,23.27
2022-10-05T09:33:45.695Z,23.27
2022-10-05T09:36:28.315Z,23.22
2022-10-05T09:39:13.525Z,23.53
2022-10-05T09:41:55.586Z,23.48
2022-10-05T09:44:41.560Z,22.75
2022-10-05T09:47:27.253Z,22.08
2022-10-05T09:49:56.881Z,21.64
2022-10-05T09:52:42.310Z,21.25
2022-10-05T09:55:21.307Z,20.70
2022-10-05T09:57:53.212Z,20.49
2022-10-05T10:00:39.196Z,20.55
2022-10-05T10:03:13.874Z,20.45
2022-10-05T10:05:52.926Z,20.71
2022-10-05T10:08:32.578Z,21.13
2022-10-05T10:11:07.773Z,21.33
2022-10-05T10:13:56.019Z,21.54
2022-10-05T10:16:37.155Z,22.03
2022-10-05T10:19:15.625Z,21.89
2022-10-05T10:21:55.037Z,22.19
2022-10-05T10:24:32.323Z,22.04
2022-10-05T10:27:11.055Z,21.89
2022-10-05T10:29:46.434Z,22.37
2022-10-05T10:32:16.352Z,22.16
2022-10-05T10:34:46.060Z,22.37
2022-10-05T10:37:31.516Z,22.05
2022-10-05T10:40:13.127Z,21.49
2022-10-05T10:42:52.024Z,21.43
2022-10-05T10:45:27.614Z,20.86
2022-10-05T10:47:54.759Z,20.93
2022-10-05T10:50:23.635Z,20.99
2022-10-05T10:53:10.605Z,21.24
2022-10-05T10:55:52.041Z,21.75
2022-10-05T10:58:25.014Z,21.38
2022-10-05T11:00:54.886Z,20.86
2022-10-05T11:03:40.403Z,21.77
2022-10-05T11:06:10.136Z,21.48
2022-10-05T11:08:36.894Z,21.96
2022-10-05T11:11:31.215Z,21.70
2022-10-05T11:14:02.767Z,21.32
2022-10-05T11:16:29.507Z,21.87
2022-10-05T11:19:12.391Z,21.99
2022-10-05T11:21:52.138Z,22.07
2022-10-05T11:24:39.052Z,22.11
2022-10-05T11:30:06.421Z,21.83
2022-10-05T11:32:36.509Z,21.85
2022-10-05T11:35:24.743Z,21.95
2022-10-05T11:37:52.006Z,21.70
2022-10-05T11:40:37.054Z,21.69
2022-10-05T11:43:15.834Z,21.56
2022-10-05T11:45:51.691Z,21.26
2022-10-05T11:48:21.499Z,21.44
2022-10-05T11:51:03.632Z,21.34
2022-10-05T11:53:37.734Z,21.32
2022-10-05T11:56:10.769Z,21.41
2022-10-05T11:58:41.365Z,21.49
2022-10-05T12:01:20.305Z,21.27
2022-10-05T12:04:07.339Z,21.17
2022-10-05T12:06:52.533Z,21.32
2022-10-05T12:09:36.279Z,21.30
2022-10-05T12:12:21.228Z,21.23
2022-10-05T12:14:47.924Z,21.43
2022-10-05T12:17:35.142Z,21.39
2022-10-05T12:20:34.036Z,21.07
2022-10-05T12:23:11.977Z,20.98
2022-10-05T12:25:44.346Z,20.79
2022-10-05T12:28:17.463Z,21.10
2022-10-05T12:30:59.166Z,21.08
2022-10-05T12:33:31.764Z,21.25
2022-10-05T12:36:01.940Z,21.21
2022-10-05T12:38:34.539Z,21.35
2022-10-05T12:41:13.665Z,21.22
2022-10-05T12:43:54.364Z,21.29
2022-10-05T12:46:24.134Z,21.47
2022-10-05T12:48:53.139Z,21.58
2022-10-05T12:51:30.497Z,21.53
2022-10-05T12:53:59.927Z,21.09
2022-10-05T12:56:37.363Z,21.56
2022-10-05T12:59:11.544Z,21.84
2022-10-05T13:01:41.304Z,21.36
2022-10-05T13:04:19.551Z,21.31
2022-10-05T13:06:46.202Z,21.18
2022-10-05T13:09:39.381Z,20.90
2022-10-05T13:15:32.726Z,20.98
2022-10-05T13:18:13.981Z,20.35
2022-10-05T13:20:47.072Z,20.20
2022-10-05T13:23:18.150Z,20.29
2022-10-05T13:25:53.600Z,20.33
2022-10-05T13:28:43.984Z,20.44
2022-10-05T13:31:19.125Z,20.62
2022-10-05T13:33:48.901Z,20.65
2022-10-05T13:36:35.997Z,20.60
2022-10-05T13:39:27.951Z,20.72
2022-10-05T13:42:00.155Z,20.56
2022-10-05T13:44:36.055Z,20.50
2022-10-05T13:47:16.914Z,20.36
2022-10-05T13:49:43.711Z,20.29
2022-10-05T13:52:29.174Z,20.15
2022-10-05T13:55:02.164Z,20.05
2022-10-05T13:57:45.391Z,20.17
2022-10-05T14:00:20.258Z,20.19
2022-10-05T14:02:53.693Z,19.99
2022-10-05T14:05:24.938Z,20.00
2022-10-05T14:07:58.646Z,19.97
2022-10-05T14:10:42.034Z,19.98
2022-10-05T14:13:17.692Z,19.95
2022-10-05T14:15:55.829Z,19.96
2022-10-05T14:18:23.998Z,20.07
2022-10-05T14:21:01.511Z,20.02
2022-10-05T14:23:29.226Z,20.00
2022-10-05T14:25:56.303Z,19.99
2022-10-05T14:28:27.823Z,19.93
2022-10-05T14:30:59.532Z,19.88
2022-10-05T14:33:27.784Z,19.79
2022-10-05T14:35:57.992Z,19.88
2022-10-05T14:38:32.622Z,19.85
2022-10-05T14:41:14.906Z,19.75
2022-10-05T14:43:49.512Z,19.77
2022-10-05T14:46:25.313Z,19.66
2022-10-05T14:49:14.035Z,19.48
2022-10-05T14:51:42.394Z,19.51
2022-10-05T14:54:30.493Z,19.56
2022-10-05T14:56:57.213Z,19.52
2022-10-05T14:59:38.346Z,19.45
2022-10-05T15:02:14.183Z,19.42
2022-10-05T15:04:44.502Z,19.38
2022-10-05T15:07:21.827Z,19.15
2022-10-05T15:09:51.812Z,19.13
2022-10-05T15:12:22.662Z,19.13
2022-10-05T15:14:51.575Z,18.94
2022-10-05T15:17:20.877Z,18.79
2022-10-05T15:19:47.465Z,18.75
2022-10-05T15:22:31.850Z,18.71
2022-10-05T15:25:22.399Z,18.57
2022-10-05T15:27:58.400Z,18.46
2022-10-05T15:30:25.126Z,18.34
2022-10-05T15:33:10.599Z,18.31
2022-10-05T15:35:48.858Z,18.19
2022-10-05T15:38:26.728Z,18.14
2022-10-05T15:40:59.636Z,18.04
2022-10-05T15:43:30.920Z,17.99
2022-10-05T15:46:07.086Z,17.95
2022-10-05T15:48:52.219Z,17.81
2022-10-05T15:51:24.658Z,17.77
2022-10-05T15:54:27.495Z,18.10
2022-10-05T15:57:06.630Z,18.26
2022-10-05T15:59:51.658Z,18.27
2022-10-05T16:02:22.831Z,17.99
2022-10-05T16:04:55.647Z,17.76
2022-10-05T16:07:46.938Z,17.54
2022-10-05T16:10:20.158Z,17.38
2022-10-05T16:12:46.768Z,17.23
2022-10-05T16:15:29.218Z,17.19
2022-10-05T16:18:06.147Z,17.09
2022-10-05T16:20:51.419Z,16.95
2022-10-05T16:23:36.881Z,16.87
2022-10-05T16:26:15.555Z,16.73
2022-10-05T16:28:42.225Z,16.53
2022-10-05T16:31:17.865Z,16.50
2022-10-05T16:33:48.171Z,16.42
2022-10-05T16:36:44.631Z,16.33
2022-10-05T16:39:31.496Z,16.23
2022-10-05T16:42:04.034Z,16.11
2022-10-05T16:44:53.487Z,15.86
2022-10-05T16:47:32.315Z,15.70
2022-10-05T16:50:02.133Z,15.55
2022-10-05T16:52:29.095Z,15.38
2022-10-05T16:54:57.524Z,15.28
2022-10-05T16:57:28.453Z,15.23
2022-10-05T17:00:01.151Z,15.16
2022-10-05T17:02:35.388Z,15.18
2022-10-05T17:05:05.028Z,15.13
2022-10-05T17:07:39.522Z,15.10
2022-10-05T17:10:25.067Z,15.11
2022-10-05T17:13:11.633Z,14.98
2022-10-05T17:15:50.231Z,14.85
2022-10-05T17:18:27.348Z,14.80
2022-10-05T17:20:53.926Z,14.76
2022-10-05T17:23:56.138Z,14.70
2022-10-05T17:26:22.878Z,14.73
2022-10-05T17:28:52.363Z,14.69
2022-10-05T17:31:21.894Z,14.63
2022-10-05T17:34:26.465Z,14.67
2022-10-05T17:37:19.776Z,14.63
2022-10-05T17:39:46.675Z,14.37
2022-10-05T17:42:39.626Z,14.30
2022-10-05T17:45:12.430Z,14.24
2022-10-05T17:47:57.552Z,14.25
2022-10-05T17:50:59.611Z,13.99
2022-10-05T17:53:55.219Z,14.18
2022-10-05T17:56:22.766Z,14.17
2022-10-05T17:58:55.456Z,13.95
2022-10-05T18:01:40.613Z,14.00
2022-10-05T18:04:13.070Z,13.94
2022-10-05T18:07:00.080Z,13.98
2022-10-05T18:09:27.844Z,13.85
2022-10-05T18:12:25.998Z,13.86
2022-10-05T18:15:00.803Z,13.73
2022-10-05T18:17:44.331Z,13.73
2022-10-05T18:20:14.893Z,13.67
2022-10-05T18:22:46.543Z,13.66
2022-10-05T18:25:31.928Z,13.55
2022-10-05T18:28:00.956Z,13.56
2022-10-05T18:30:31.177Z,13.52
2022-10-05T18:33:07.843Z,13.50
2022-10-05T18:35:38.214Z,13.39
2022-10-05T18:38:24.012Z,13.34
2022-10-05T18:40:56.262Z,13.24
2022-10-05T18:43:41.000Z,13.19
2022-10-05T18:46:13.599Z,13.17
2022-10-05T18:48:40.344Z,13.10
2022-10-05T18:51:14.786Z,13.06
2022-10-05T18:53:43.565Z,13.11
2022-10-05T18:56:20.577Z,13.08
2022-10-05T18:59:09.233Z,13.00
2022-10-05T19:01:59.935Z,12.94
2022-10-05T19:04:47.115Z,12.89
2022-10-05T19:07:23.008Z,12.85
2022-10-05T19:09:49.598Z,12.76
2022-10-05T19:12:37.012Z,12.58
2022-10-05T19:15:16.038Z,12.55
2022-10-05T19:17:56.297Z,12.51
2022-10-05T19:20:26.033Z,12.46
2022-10-05T19:23:17.867Z,12.45
2022-10-05T19:25:50.580Z,12.37
2022-10-05T19:28:29.294Z,12.34
2022-10-05T19:31:16.310Z,12.23
2022-10-05T19:33:46.047Z,12.16
2022-10-05T19:36:25.802Z,12.05
2022-10-05T19:38:55.570Z,12.07
2022-10-05T19:41:40.944Z,12.09
2022-10-05T19:44:13.633Z,12.08
2022-10-05T19:46:53.752Z,12.15
2022-10-05T19:49:46.481Z,12.12
2022-10-05T19:52:21.201Z,12.11
2022-10-05T19:54:49.925Z,12.01
2022-10-05T19:57:17.993Z,11.98
2022-10-05T19:59:46.877Z,12.01
2022-10-05T20:02:17.327Z,11.84
2022-10-05T20:04:45.622Z,11.92
2022-10-05T20:07:14.173Z,11.86
2022-10-05T20:09:54.644Z,11.94
2022-10-05T20:12:24.771Z,11.96
2022-10-05T20:15:26.589Z,11.85
2022-10-05T20:18:11.478Z,11.90
2022-10-05T20:20:43.294Z,11.87
2022-10-05T20:23:38.545Z,11.81
2022-10-05T20:26:23.937Z,11.91
2022-10-05T20:28:51.172Z,11.80
2022-10-05T20:31:20.175Z,11.84
2022-10-05T20:33:48.634Z,11.80
2022-10-05T20:36:15.243Z,11.72
2022-10-05T20:38:42.673Z,11.72
2022-10-05T20:41:09.595Z,11.72
2022-10-05T20:43:39.094Z,11.73
2022-10-05T20:46:06.467Z,11.85
2022-10-05T20:48:33.165Z,11.75
2022-10-05T20:51:00.410Z,11.69
2022-10-05T20:53:27.082Z,11.51
2022-10-05T20:55:53.771Z,11.45
2022-10-05T20:58:20.450Z,11.49
2022-10-05T21:01:05.891Z,11.43
2022-10-05T21:03:33.244Z,11.43
2022-10-05T21:06:00.038Z,11.51
2022-10-05T21:08:27.085Z,11.36
2022-10-05T21:10:53.906Z,11.42
2022-10-05T21:13:20.563Z,11.47
2022-10-05T21:15:47.258Z,11.13
2022-10-05T21:18:15.871Z,11.25
2022-10-05T21:20:42.486Z,11.32
2022-10-05T21:23:09.233Z,11.29
2022-10-05T21:25:35.932Z,11.40
2022-10-05T21:28:02.898Z,11.39
2022-10-05T21:30:29.602Z,11.29
2022-10-05T21:32:56.222Z,11.28
2022-10-05T21:35:22.929Z,11.23
2022-10-05T21:37:49.830Z,11.23
2022-10-05T21:40:17.033Z,11.23
2022-10-05T21:42:43.689Z,11.20
2022-10-05T21:45:10.624Z,11.19
2022-10-05T21:47:37.312Z,11.13
2022-10-05T21:50:05.420Z,11.10
2022-10-05T21:52:32.911Z,11.04
2022-10-05T21:54:59.591Z,11.09
2022-10-05T21:57:26.362Z,10.97
2022-10-05T21:59:53.171Z,10.93
2022-10-05T22:02:19.792Z,10.97
2022-10-05T22:04:46.384Z,10.88
2022-10-05T22:07:18.276Z,10.94
2022-10-05T22:09:51.526Z,10.86
2022-10-05T22:12:20.335Z,10.93
2022-10-05T22:14:47.462Z,10.89
2022-10-05T22:17:43.596Z,10.93
2022-10-05T22:20:12.139Z,10.74
2022-10-05T22:22:38.772Z,10.71
2022-10-05T22:25:05.982Z,10.66
2022-10-05T22:27:33.492Z,10.66
2022-10-05T22:30:01.263Z,10.69
2022-10-05T22:32:28.104Z,10.61
2022-10-05T22:34:54.742Z,10.67
2022-10-05T22:37:21.435Z,10.71
2022-10-05T22:39:49.132Z,10.65
2022-10-05T22:42:15.834Z,10.71
2022-10-05T22:44:42.583Z,10.72
2022-10-05T22:47:09.555Z,10.81
2022-10-05T22:49:36.303Z,10.78
2022-10-05T22:52:03.005Z,10.86
2022-10-05T22:54:31.739Z,10.93
2022-10-05T22:56:59.994Z,10.77
2022-10-05T22:59:26.833Z,10.89
2022-10-05T23:01:53.831Z,10.92
2022-10-05T23:04:20.684Z,10.97
2022-10-05T23:06:47.505Z,10.98
2022-10-05T23:09:14.376Z,11.06
2022-10-05T23:11:41.146Z,11.03
2022-10-05T23:14:07.948Z,11.11
2022-10-05T23:16:34.702Z,11.13
2022-10-05T23:19:01.549Z,11.03
2022-10-05T23:21:29.457Z,11.09
2022-10-05T23:23:56.164Z,11.10
2022-10-05T23:26:24.097Z,10.94
2022-10-05T23:28:50.961Z,10.91
2022-10-05T23:31:19.209Z,10.82
2022-10-05T23:33:45.933Z,10.90
2022-10-05T23:36:13.943Z,10.64
2022-10-05T23:38:40.900Z,10.89
2022-10-05T23:41:08.886Z,10.85
2022-10-05T23:43:36.930Z,10.90
2022-10-05T23:46:05.051Z,10.96
2022-10-05T23:48:32.499Z,10.94
2022-10-05T23:50:59.914Z,10.92
2022-10-05T23:53:26.902Z,10.83
2022-10-05T23:55:53.793Z,10.75
2022-10-05T23:58:21.045Z,10.79
